EWG28T EDDH-UMKK
Flight info
| Callsign | EWG28T |
|---|---|
| Flight time | 1h 10m |
| Altitude | 33000 |
| Route | RAMAR6G/33 RAMAR L23 BINKA DCT AGODU DCT BEZMI L733 RANOK L983 TARUN |
| Aircraft | A20N/M-SDE2E3FGIJ1LORWXYZ/HB1 |
Departure
| Time | 2026-05-07 22:03 |
|---|---|
| Airport | Hamburg Helmut Schmidt Airport (EDDH) |
Arrival
| Time | 2026-05-07 23:13 |
|---|---|
| Airport | Khrabrovo Airport (UMKK) |
| Time | Latitude | Longitude | Altitude | Speed | Heading |
|---|---|---|---|---|---|
| 2026-05-07 21:42 | 53.63313 | 10.00028 | 32 ft | 0 kts | 140° |
| 2026-05-07 21:57 | 53.63312 | 10.00029 | 32 ft | 0 kts | 144° |
| 2026-05-07 21:57 | 53.63311 | 10.00029 | 32 ft | 0 kts | 164° |
| 2026-05-07 21:57 | 53.63306 | 10.00022 | 32 ft | 2 kts | 231° |
| 2026-05-07 21:58 | 53.63320 | 9.99976 | 31 ft | 6 kts | 323° |
| 2026-05-07 21:58 | 53.63350 | 9.99933 | 32 ft | 3 kts | 296° |
| 2026-05-07 21:58 | 53.63338 | 9.99883 | 31 ft | 6 kts | 232° |
| 2026-05-07 21:58 | 53.63309 | 9.99821 | 31 ft | 2 kts | 231° |
| 2026-05-07 21:59 | 53.63291 | 9.99786 | 31 ft | 5 kts | 226° |
| 2026-05-07 21:59 | 53.63243 | 9.99754 | 30 ft | 9 kts | 176° |
| 2026-05-07 21:59 | 53.63171 | 9.99804 | 29 ft | 12 kts | 153° |
| 2026-05-07 21:59 | 53.63083 | 9.99882 | 28 ft | 15 kts | 149° |
| 2026-05-07 22:00 | 53.63012 | 9.99942 | 28 ft | 8 kts | 154° |
| 2026-05-07 22:00 | 53.62999 | 9.99953 | 28 ft | 0 kts | 153° |
| 2026-05-07 22:01 | 53.62987 | 9.99962 | 28 ft | 4 kts | 153° |
| 2026-05-07 22:01 | 53.62951 | 9.99987 | 29 ft | 6 kts | 173° |
| 2026-05-07 22:01 | 53.62910 | 9.99952 | 30 ft | 7 kts | 234° |
| 2026-05-07 22:01 | 53.62885 | 9.99875 | 30 ft | 8 kts | 243° |
| 2026-05-07 22:02 | 53.62868 | 9.99775 | 31 ft | 10 kts | 284° |
| 2026-05-07 22:02 | 53.62928 | 9.99693 | 29 ft | 13 kts | 334° |
| 2026-05-07 22:02 | 53.63164 | 9.99489 | 32 ft | 75 kts | 334° |
| 2026-05-07 22:02 | 53.63845 | 9.98901 | 37 ft | 141 kts | 335° |
| 2026-05-07 22:03 | 53.64846 | 9.98109 | 383 ft | 165 kts | 336° |
| 2026-05-07 22:03 | 53.65852 | 9.97259 | 1140 ft | 165 kts | 334° |
| 2026-05-07 22:03 | 53.66842 | 9.96371 | 1904 ft | 165 kts | 334° |
| 2026-05-07 22:03 | 53.67884 | 9.95433 | 2397 ft | 179 kts | 335° |
| 2026-05-07 22:04 | 53.69095 | 9.94684 | 2860 ft | 193 kts | 353° |
| 2026-05-07 22:04 | 53.70470 | 9.94550 | 3330 ft | 209 kts | 3° |
| 2026-05-07 22:04 | 53.72019 | 9.94589 | 3858 ft | 226 kts | 8° |
| 2026-05-07 22:04 | 53.73447 | 9.95357 | 4752 ft | 222 kts | 36° |
| 2026-05-07 22:05 | 53.74465 | 9.97361 | 5338 ft | 235 kts | 69° |
| 2026-05-07 22:05 | 53.74708 | 10.00149 | 5914 ft | 252 kts | 90° |
| 2026-05-07 22:05 | 53.74727 | 10.03166 | 6658 ft | 263 kts | 88° |
| 2026-05-07 22:05 | 53.74781 | 10.06233 | 7578 ft | 267 kts | 88° |
| 2026-05-07 22:06 | 53.74841 | 10.09361 | 8468 ft | 271 kts | 88° |
| 2026-05-07 22:06 | 53.74903 | 10.12536 | 9303 ft | 277 kts | 88° |
| 2026-05-07 22:06 | 53.74966 | 10.15805 | 10138 ft | 283 kts | 88° |
| 2026-05-07 22:06 | 53.75030 | 10.19159 | 10852 ft | 293 kts | 87° |
| 2026-05-07 22:07 | 53.75097 | 10.22686 | 11317 ft | 311 kts | 87° |
| 2026-05-07 22:07 | 53.75168 | 10.26395 | 11807 ft | 326 kts | 88° |
| 2026-05-07 22:07 | 53.75245 | 10.30265 | 12554 ft | 333 kts | 88° |
| 2026-05-07 22:07 | 53.75315 | 10.34167 | 13354 ft | 337 kts | 88° |
| 2026-05-07 22:08 | 53.75383 | 10.38163 | 14119 ft | 342 kts | 88° |
| 2026-05-07 22:08 | 53.75450 | 10.42139 | 14875 ft | 346 kts | 88° |
| 2026-05-07 22:08 | 53.75520 | 10.46242 | 15610 ft | 351 kts | 88° |
| 2026-05-07 22:08 | 53.75588 | 10.50341 | 16322 ft | 355 kts | 88° |
| 2026-05-07 22:09 | 53.75655 | 10.54509 | 17022 ft | 360 kts | 88° |
| 2026-05-07 22:09 | 53.75699 | 10.57235 | 17475 ft | 362 kts | 88° |
| 2026-05-07 22:09 | 53.75767 | 10.61513 | 18132 ft | 367 kts | 88° |
| 2026-05-07 22:09 | 53.75834 | 10.65836 | 18613 ft | 377 kts | 89° |
| 2026-05-07 22:10 | 53.75903 | 10.70381 | 18891 ft | 392 kts | 89° |
| 2026-05-07 22:10 | 53.75970 | 10.75029 | 19145 ft | 405 kts | 89° |
| 2026-05-07 22:10 | 53.76038 | 10.79825 | 19563 ft | 414 kts | 89° |
| 2026-05-07 22:10 | 53.76105 | 10.84702 | 20142 ft | 417 kts | 89° |
| 2026-05-07 22:11 | 53.76172 | 10.89635 | 20747 ft | 420 kts | 89° |
| 2026-05-07 22:11 | 53.76235 | 10.94531 | 21284 ft | 423 kts | 89° |
| 2026-05-07 22:11 | 53.76297 | 10.99528 | 21851 ft | 427 kts | 89° |
| 2026-05-07 22:11 | 53.76358 | 11.04544 | 22382 ft | 430 kts | 89° |
| 2026-05-07 22:12 | 53.76418 | 11.09604 | 22917 ft | 433 kts | 89° |
| 2026-05-07 22:12 | 53.76476 | 11.14684 | 23420 ft | 436 kts | 89° |
| 2026-05-07 22:12 | 53.76532 | 11.19805 | 23901 ft | 440 kts | 89° |
| 2026-05-07 22:12 | 53.76586 | 11.24967 | 24132 ft | 448 kts | 89° |
| 2026-05-07 22:13 | 53.76641 | 11.30328 | 24324 ft | 457 kts | 89° |
| 2026-05-07 22:13 | 53.76691 | 11.35751 | 24506 ft | 466 kts | 89° |
| 2026-05-07 22:13 | 53.76742 | 11.41163 | 24795 ft | 470 kts | 89° |
| 2026-05-07 22:13 | 53.76791 | 11.46672 | 25321 ft | 468 kts | 89° |
| 2026-05-07 22:14 | 53.76836 | 11.52161 | 25910 ft | 465 kts | 89° |
| 2026-05-07 22:14 | 53.76875 | 11.57545 | 26462 ft | 463 kts | 89° |
| 2026-05-07 22:14 | 53.76910 | 11.62958 | 26953 ft | 462 kts | 88° |
| 2026-05-07 22:14 | 53.76947 | 11.68411 | 27393 ft | 462 kts | 89° |
| 2026-05-07 22:15 | 53.76984 | 11.73831 | 27866 ft | 461 kts | 89° |
| 2026-05-07 22:15 | 53.77020 | 11.79211 | 28386 ft | 459 kts | 89° |
| 2026-05-07 22:15 | 53.77050 | 11.84535 | 28907 ft | 457 kts | 89° |
| 2026-05-07 22:15 | 53.77078 | 11.89879 | 29408 ft | 455 kts | 89° |
| 2026-05-07 22:16 | 53.77103 | 11.95160 | 29894 ft | 454 kts | 89° |
| 2026-05-07 22:16 | 53.77125 | 12.00525 | 30391 ft | 452 kts | 89° |
| 2026-05-07 22:16 | 53.77147 | 12.05804 | 30863 ft | 450 kts | 89° |
| 2026-05-07 22:16 | 53.77165 | 12.11024 | 31329 ft | 448 kts | 89° |
| 2026-05-07 22:17 | 53.77181 | 12.16257 | 31736 ft | 446 kts | 90° |
| 2026-05-07 22:17 | 53.77195 | 12.21435 | 32078 ft | 445 kts | 90° |
| 2026-05-07 22:17 | 53.77204 | 12.26664 | 32417 ft | 445 kts | 90° |
| 2026-05-07 22:17 | 53.77208 | 12.31837 | 32740 ft | 444 kts | 89° |
| 2026-05-07 22:18 | 53.77213 | 12.37092 | 32942 ft | 446 kts | 89° |
| 2026-05-07 22:18 | 53.77217 | 12.47495 | 33170 ft | 446 kts | 89° |
| 2026-05-07 22:19 | 53.77215 | 12.57995 | 33157 ft | 446 kts | 89° |
| 2026-05-07 22:19 | 53.77204 | 12.68420 | 33160 ft | 447 kts | 90° |
| 2026-05-07 22:20 | 53.77182 | 12.78941 | 33167 ft | 449 kts | 90° |
| 2026-05-07 22:20 | 53.77151 | 12.89464 | 33157 ft | 449 kts | 90° |
| 2026-05-07 22:21 | 53.77110 | 12.99959 | 33155 ft | 449 kts | 90° |
| 2026-05-07 22:21 | 53.77067 | 13.10394 | 33159 ft | 445 kts | 91° |
| 2026-05-07 22:22 | 53.77006 | 13.20863 | 33160 ft | 446 kts | 91° |
| 2026-05-07 22:22 | 53.76936 | 13.31293 | 33127 ft | 446 kts | 91° |
| 2026-05-07 22:23 | 53.76853 | 13.41723 | 33127 ft | 449 kts | 90° |
| 2026-05-07 22:23 | 53.76770 | 13.52269 | 33139 ft | 450 kts | 90° |
| 2026-05-07 22:24 | 53.76681 | 13.62784 | 33160 ft | 446 kts | 91° |
| 2026-05-07 22:24 | 53.76576 | 13.73198 | 33147 ft | 446 kts | 91° |
| 2026-05-07 22:25 | 53.76471 | 13.82830 | 33140 ft | 445 kts | 91° |
| 2026-05-07 22:25 | 53.76362 | 13.92113 | 33140 ft | 446 kts | 91° |
| 2026-05-07 22:26 | 53.76234 | 14.02552 | 33149 ft | 446 kts | 91° |
| 2026-05-07 22:26 | 53.76097 | 14.13001 | 33151 ft | 446 kts | 91° |
| 2026-05-07 22:27 | 53.76041 | 14.23392 | 33149 ft | 448 kts | 88° |
| 2026-05-07 22:27 | 53.76615 | 14.33870 | 33143 ft | 450 kts | 81° |
| 2026-05-07 22:28 | 53.77693 | 14.44152 | 33147 ft | 444 kts | 79° |
| 2026-05-07 22:28 | 53.78799 | 14.54366 | 33148 ft | 444 kts | 79° |
| 2026-05-07 22:29 | 53.79889 | 14.64597 | 33149 ft | 444 kts | 80° |
| 2026-05-07 22:29 | 53.80969 | 14.74872 | 33146 ft | 443 kts | 81° |
| 2026-05-07 22:30 | 53.82033 | 14.85090 | 33144 ft | 443 kts | 81° |
| 2026-05-07 22:30 | 53.83090 | 14.95328 | 33135 ft | 442 kts | 81° |
| 2026-05-07 22:31 | 53.84131 | 15.05516 | 33130 ft | 442 kts | 81° |
| 2026-05-07 22:31 | 53.85170 | 15.15769 | 33136 ft | 443 kts | 81° |
| 2026-05-07 22:32 | 53.86199 | 15.26009 | 33148 ft | 444 kts | 81° |
| 2026-05-07 22:32 | 53.87220 | 15.36264 | 33158 ft | 444 kts | 81° |
| 2026-05-07 22:33 | 53.88235 | 15.46543 | 33145 ft | 443 kts | 81° |
| 2026-05-07 22:33 | 53.89242 | 15.56851 | 33147 ft | 443 kts | 81° |
| 2026-05-07 22:34 | 53.90231 | 15.67069 | 33147 ft | 443 kts | 82° |
| 2026-05-07 22:34 | 53.90437 | 15.69230 | 33021 ft | 445 kts | 81° |
| 2026-05-07 22:34 | 53.90933 | 15.74466 | 33011 ft | 453 kts | 80° |
| 2026-05-07 22:35 | 53.91943 | 15.84981 | 33000 ft | 456 kts | 81° |
| 2026-05-07 22:35 | 53.92954 | 15.95637 | 32997 ft | 457 kts | 81° |
| 2026-05-07 22:36 | 53.94187 | 16.06173 | 32995 ft | 457 kts | 76° |
| 2026-05-07 22:36 | 53.96104 | 16.16442 | 32995 ft | 457 kts | 69° |
| 2026-05-07 22:37 | 53.98665 | 16.26197 | 32995 ft | 457 kts | 63° |
| 2026-05-07 22:37 | 54.01505 | 16.35856 | 32995 ft | 457 kts | 63° |
| 2026-05-07 22:38 | 54.04325 | 16.45453 | 32995 ft | 456 kts | 63° |
| 2026-05-07 22:38 | 54.07152 | 16.55157 | 32995 ft | 456 kts | 63° |
| 2026-05-07 22:39 | 54.09935 | 16.64765 | 32995 ft | 455 kts | 62° |
| 2026-05-07 22:39 | 54.12727 | 16.74434 | 32995 ft | 456 kts | 63° |
| 2026-05-07 22:40 | 54.15486 | 16.84043 | 32994 ft | 456 kts | 64° |
| 2026-05-07 22:40 | 54.18267 | 16.93765 | 32995 ft | 457 kts | 64° |
| 2026-05-07 22:41 | 54.21048 | 17.03535 | 32994 ft | 458 kts | 64° |
| 2026-05-07 22:41 | 54.23808 | 17.13276 | 32995 ft | 457 kts | 64° |
| 2026-05-07 22:42 | 54.26560 | 17.23025 | 32994 ft | 457 kts | 63° |
| 2026-05-07 22:42 | 54.29303 | 17.32780 | 32995 ft | 457 kts | 63° |
| 2026-05-07 22:43 | 54.32032 | 17.42527 | 32995 ft | 456 kts | 63° |
| 2026-05-07 22:43 | 54.34751 | 17.52276 | 32994 ft | 453 kts | 63° |
| 2026-05-07 22:43 | 54.36082 | 17.57068 | 32918 ft | 441 kts | 63° |
| 2026-05-07 22:44 | 54.37378 | 17.61739 | 32761 ft | 432 kts | 63° |
| 2026-05-07 22:44 | 54.38653 | 17.66345 | 32580 ft | 428 kts | 64° |
| 2026-05-07 22:44 | 54.39914 | 17.70906 | 32034 ft | 426 kts | 64° |
| 2026-05-07 22:44 | 54.40821 | 17.74196 | 31561 ft | 423 kts | 64° |
| 2026-05-07 22:45 | 54.42069 | 17.78726 | 30938 ft | 423 kts | 64° |
| 2026-05-07 22:45 | 54.43339 | 17.83344 | 30285 ft | 426 kts | 64° |
| 2026-05-07 22:45 | 54.44593 | 17.87911 | 29770 ft | 428 kts | 64° |
| 2026-05-07 22:45 | 54.45871 | 17.92577 | 29209 ft | 429 kts | 64° |
| 2026-05-07 22:46 | 54.47135 | 17.97201 | 28574 ft | 430 kts | 64° |
| 2026-05-07 22:46 | 54.48401 | 18.01844 | 27965 ft | 429 kts | 64° |
| 2026-05-07 22:46 | 54.49649 | 18.06433 | 27527 ft | 425 kts | 64° |
| 2026-05-07 22:46 | 54.50881 | 18.10972 | 27072 ft | 421 kts | 64° |
| 2026-05-07 22:47 | 54.52103 | 18.15482 | 26611 ft | 417 kts | 64° |
| 2026-05-07 22:47 | 54.53327 | 18.20009 | 26142 ft | 414 kts | 64° |
| 2026-05-07 22:47 | 54.54530 | 18.24457 | 25679 ft | 411 kts | 64° |
| 2026-05-07 22:47 | 54.55721 | 18.28878 | 25218 ft | 408 kts | 65° |
| 2026-05-07 22:48 | 54.56896 | 18.33251 | 24762 ft | 405 kts | 65° |
| 2026-05-07 22:48 | 54.58070 | 18.37627 | 24305 ft | 402 kts | 65° |
| 2026-05-07 22:48 | 54.59230 | 18.41960 | 23852 ft | 399 kts | 65° |
| 2026-05-07 22:48 | 54.60381 | 18.46263 | 23398 ft | 397 kts | 65° |
| 2026-05-07 22:49 | 54.61526 | 18.50557 | 22945 ft | 394 kts | 65° |
| 2026-05-07 22:49 | 54.62660 | 18.54816 | 22492 ft | 392 kts | 65° |
| 2026-05-07 22:49 | 54.63788 | 18.59062 | 22039 ft | 389 kts | 65° |
| 2026-05-07 22:49 | 54.64911 | 18.63299 | 21580 ft | 387 kts | 65° |
| 2026-05-07 22:50 | 54.66025 | 18.67506 | 21127 ft | 385 kts | 65° |
| 2026-05-07 22:50 | 54.67128 | 18.71673 | 20679 ft | 382 kts | 65° |
| 2026-05-07 22:50 | 54.68220 | 18.75809 | 20233 ft | 380 kts | 66° |
| 2026-05-07 22:50 | 54.69309 | 18.79940 | 19787 ft | 377 kts | 66° |
| 2026-05-07 22:51 | 54.70379 | 18.84013 | 19346 ft | 375 kts | 66° |
| 2026-05-07 22:51 | 54.71455 | 18.88114 | 18902 ft | 372 kts | 66° |
| 2026-05-07 22:51 | 54.72523 | 18.92189 | 18458 ft | 370 kts | 66° |
| 2026-05-07 22:51 | 54.73563 | 18.96169 | 18024 ft | 367 kts | 66° |
| 2026-05-07 22:52 | 54.74615 | 19.00198 | 17584 ft | 365 kts | 66° |
| 2026-05-07 22:52 | 54.75649 | 19.04168 | 17149 ft | 362 kts | 66° |
| 2026-05-07 22:52 | 54.76673 | 19.08106 | 16717 ft | 360 kts | 66° |
| 2026-05-07 22:52 | 54.77701 | 19.12065 | 16282 ft | 357 kts | 66° |
| 2026-05-07 22:53 | 54.78703 | 19.15930 | 15857 ft | 355 kts | 66° |
| 2026-05-07 22:53 | 54.79709 | 19.19818 | 15429 ft | 352 kts | 66° |
| 2026-05-07 22:53 | 54.80699 | 19.23651 | 15006 ft | 350 kts | 66° |
| 2026-05-07 22:53 | 54.81684 | 19.27469 | 14585 ft | 347 kts | 66° |
| 2026-05-07 22:54 | 54.82659 | 19.31258 | 14166 ft | 345 kts | 66° |
| 2026-05-07 22:54 | 54.83626 | 19.35021 | 13751 ft | 342 kts | 66° |
| 2026-05-07 22:54 | 54.84592 | 19.38787 | 13334 ft | 340 kts | 66° |
| 2026-05-07 22:54 | 54.85543 | 19.42498 | 12922 ft | 338 kts | 66° |
| 2026-05-07 22:55 | 54.86490 | 19.46203 | 12510 ft | 335 kts | 66° |
| 2026-05-07 22:55 | 54.87423 | 19.49860 | 12102 ft | 333 kts | 66° |
| 2026-05-07 22:55 | 54.88364 | 19.53551 | 11689 ft | 331 kts | 66° |
| 2026-05-07 22:55 | 54.89289 | 19.57189 | 11284 ft | 328 kts | 66° |
| 2026-05-07 22:56 | 54.90159 | 19.60825 | 10895 ft | 326 kts | 69° |
| 2026-05-07 22:56 | 54.90916 | 19.64520 | 10874 ft | 328 kts | 71° |
| 2026-05-07 22:56 | 54.91661 | 19.68251 | 10899 ft | 329 kts | 71° |
| 2026-05-07 22:56 | 54.92411 | 19.72030 | 10925 ft | 329 kts | 71° |
| 2026-05-07 22:57 | 54.93160 | 19.75804 | 10950 ft | 329 kts | 71° |
| 2026-05-07 22:57 | 54.93901 | 19.79542 | 10974 ft | 330 kts | 71° |
| 2026-05-07 22:57 | 54.94642 | 19.83284 | 10987 ft | 330 kts | 71° |
| 2026-05-07 22:57 | 54.95389 | 19.87061 | 10992 ft | 330 kts | 71° |
| 2026-05-07 22:58 | 54.96131 | 19.90817 | 10994 ft | 330 kts | 71° |
| 2026-05-07 22:58 | 54.96869 | 19.94563 | 10995 ft | 330 kts | 71° |
| 2026-05-07 22:58 | 54.97615 | 19.98355 | 10995 ft | 330 kts | 71° |
| 2026-05-07 22:58 | 54.98352 | 20.02107 | 10995 ft | 330 kts | 71° |
| 2026-05-07 22:59 | 54.99091 | 20.05881 | 10995 ft | 330 kts | 71° |
| 2026-05-07 22:59 | 54.99829 | 20.09651 | 10995 ft | 330 kts | 71° |
| 2026-05-07 22:59 | 55.00566 | 20.13421 | 10981 ft | 319 kts | 71° |
| 2026-05-07 22:59 | 55.01262 | 20.16994 | 10839 ft | 307 kts | 71° |
| 2026-05-07 23:00 | 55.01933 | 20.20442 | 10657 ft | 297 kts | 71° |
| 2026-05-07 23:00 | 55.02584 | 20.23791 | 10388 ft | 292 kts | 72° |
| 2026-05-07 23:00 | 55.03228 | 20.27116 | 10010 ft | 290 kts | 72° |
| 2026-05-07 23:00 | 55.03875 | 20.30462 | 9627 ft | 288 kts | 72° |
| 2026-05-07 23:01 | 55.04508 | 20.33736 | 9254 ft | 287 kts | 72° |
| 2026-05-07 23:01 | 55.05138 | 20.37006 | 8876 ft | 285 kts | 72° |
| 2026-05-07 23:01 | 55.05771 | 20.40293 | 8499 ft | 283 kts | 72° |
| 2026-05-07 23:01 | 55.06387 | 20.43496 | 8129 ft | 282 kts | 72° |
| 2026-05-07 23:02 | 55.07008 | 20.46739 | 7750 ft | 280 kts | 71° |
| 2026-05-07 23:02 | 55.07616 | 20.49912 | 7379 ft | 278 kts | 71° |
| 2026-05-07 23:02 | 55.08226 | 20.53097 | 7006 ft | 277 kts | 72° |
| 2026-05-07 23:02 | 55.08836 | 20.56294 | 6624 ft | 275 kts | 71° |
| 2026-05-07 23:03 | 55.09433 | 20.59429 | 6254 ft | 274 kts | 71° |
| 2026-05-07 23:03 | 55.10026 | 20.62544 | 5883 ft | 272 kts | 71° |
| 2026-05-07 23:03 | 55.10622 | 20.65687 | 5442 ft | 274 kts | 72° |
| 2026-05-07 23:03 | 55.11218 | 20.68831 | 5125 ft | 269 kts | 72° |
| 2026-05-07 23:04 | 55.11789 | 20.71850 | 5005 ft | 258 kts | 72° |
| 2026-05-07 23:04 | 55.12334 | 20.74726 | 4993 ft | 242 kts | 72° |
| 2026-05-07 23:04 | 55.12929 | 20.77445 | 4995 ft | 237 kts | 68° |
| 2026-05-07 23:04 | 55.13559 | 20.80062 | 4989 ft | 231 kts | 68° |
| 2026-05-07 23:05 | 55.14189 | 20.82652 | 4999 ft | 236 kts | 68° |
| 2026-05-07 23:05 | 55.14831 | 20.85295 | 4944 ft | 236 kts | 68° |
| 2026-05-07 23:05 | 55.15189 | 20.88061 | 4654 ft | 236 kts | 97° |
| 2026-05-07 23:05 | 55.14543 | 20.90589 | 4336 ft | 231 kts | 136° |
| 2026-05-07 23:06 | 55.13182 | 20.92007 | 4002 ft | 229 kts | 165° |
| 2026-05-07 23:06 | 55.11603 | 20.92154 | 3680 ft | 228 kts | 189° |
| 2026-05-07 23:06 | 55.10076 | 20.91694 | 3476 ft | 222 kts | 189° |
| 2026-05-07 23:06 | 55.08560 | 20.91254 | 3241 ft | 218 kts | 189° |
| 2026-05-07 23:07 | 55.07063 | 20.90857 | 3094 ft | 216 kts | 188° |
| 2026-05-07 23:07 | 55.05597 | 20.90494 | 3015 ft | 216 kts | 188° |
| 2026-05-07 23:07 | 55.04087 | 20.90136 | 2888 ft | 216 kts | 187° |
| 2026-05-07 23:07 | 55.02610 | 20.89794 | 2748 ft | 216 kts | 187° |
| 2026-05-07 23:08 | 55.01129 | 20.89454 | 2518 ft | 217 kts | 187° |
| 2026-05-07 23:08 | 54.99643 | 20.89115 | 2271 ft | 214 kts | 187° |
| 2026-05-07 23:08 | 54.98157 | 20.88777 | 1987 ft | 214 kts | 187° |
| 2026-05-07 23:08 | 54.96798 | 20.87987 | 1867 ft | 203 kts | 218° |
| 2026-05-07 23:09 | 54.95927 | 20.86187 | 1896 ft | 191 kts | 239° |
| 2026-05-07 23:09 | 54.95388 | 20.84200 | 1931 ft | 172 kts | 248° |
| 2026-05-07 23:09 | 54.94981 | 20.82394 | 1883 ft | 150 kts | 248° |
| 2026-05-07 23:09 | 54.94595 | 20.80752 | 1876 ft | 148 kts | 246° |
| 2026-05-07 23:10 | 54.94186 | 20.79114 | 1879 ft | 147 kts | 245° |
| 2026-05-07 23:10 | 54.93763 | 20.77481 | 1874 ft | 147 kts | 245° |
| 2026-05-07 23:10 | 54.93343 | 20.75881 | 1717 ft | 144 kts | 245° |
| 2026-05-07 23:10 | 54.92928 | 20.74307 | 1523 ft | 141 kts | 245° |
| 2026-05-07 23:11 | 54.92525 | 20.72773 | 1342 ft | 140 kts | 245° |
| 2026-05-07 23:11 | 54.92122 | 20.71235 | 1159 ft | 140 kts | 245° |
| 2026-05-07 23:11 | 54.91721 | 20.69697 | 975 ft | 140 kts | 245° |
| 2026-05-07 23:11 | 54.91317 | 20.68150 | 787 ft | 139 kts | 245° |
| 2026-05-07 23:12 | 54.90921 | 20.66627 | 601 ft | 139 kts | 245° |
| 2026-05-07 23:12 | 54.90522 | 20.65090 | 414 ft | 139 kts | 245° |
| 2026-05-07 23:12 | 54.90131 | 20.63572 | 199 ft | 138 kts | 245° |
| 2026-05-07 23:12 | 54.89746 | 20.62059 | 51 ft | 137 kts | 245° |
| 2026-05-07 23:13 | 54.89378 | 20.60673 | 28 ft | 106 kts | 245° |
| 2026-05-07 23:13 | 54.89144 | 20.59782 | 32 ft | 56 kts | 245° |
| 2026-05-07 23:13 | 54.89025 | 20.59349 | 35 ft | 34 kts | 237° |
| 2026-05-07 23:13 | 54.88897 | 20.59120 | 35 ft | 12 kts | 217° |
| 2026-05-07 23:14 | 54.88830 | 20.59034 | 35 ft | 6 kts | 217° |
| 2026-05-07 23:14 | 54.88825 | 20.59028 | 35 ft | 0 kts | 217° |
| 2026-05-07 23:14 | 54.88824 | 20.59027 | 35 ft | 0 kts | 216° |
| 2026-05-07 23:15 | 54.88817 | 20.59017 | 35 ft | 3 kts | 216° |
| 2026-05-07 23:15 | 54.88795 | 20.58990 | 36 ft | 4 kts | 216° |
| 2026-05-07 23:15 | 54.88768 | 20.58956 | 36 ft | 5 kts | 216° |
| 2026-05-07 23:15 | 54.88738 | 20.58906 | 36 ft | 7 kts | 234° |
| 2026-05-07 23:16 | 54.88711 | 20.58810 | 35 ft | 8 kts | 246° |
| 2026-05-07 23:16 | 54.88663 | 20.58749 | 35 ft | 10 kts | 176° |
| 2026-05-07 23:16 | 54.88596 | 20.58787 | 36 ft | 10 kts | 156° |
| 2026-05-07 23:16 | 54.88535 | 20.58816 | 37 ft | 8 kts | 213° |
| 2026-05-07 23:17 | 54.88506 | 20.58739 | 38 ft | 6 kts | 245° |
| 2026-05-07 23:17 | 54.88483 | 20.58658 | 38 ft | 8 kts | 245° |
| 2026-05-07 23:17 | 54.88444 | 20.58621 | 38 ft | 3 kts | 159° |
| 2026-05-07 23:17 | 54.88416 | 20.58642 | 38 ft | 5 kts | 156° |
| 2026-05-07 23:18 | 54.88406 | 20.58649 | 38 ft | 0 kts | 156° |
| 2026-05-07 23:18 | 54.88405 | 20.58650 | 38 ft | 1 kts | 158° |
| 2026-05-07 23:18 | 54.88401 | 20.58653 | 38 ft | 0 kts | 158° |